sensor_id;sensor_type;location;lat;lon;timestamp;P1;durP1;ratioP1;P2;durP2;ratioP2
11141;SDS011;5625;50.122;19.864;2023-12-14T00:01:45;46.20;;;24.73;;
11141;SDS011;5625;50.122;19.864;2023-12-14T00:04:15;45.57;;;25.80;;
11141;SDS011;5625;50.122;19.864;2023-12-14T00:06:43;44.63;;;25.40;;
11141;SDS011;5625;50.122;19.864;2023-12-14T00:09:12;48.93;;;26.43;;
11141;SDS011;5625;50.122;19.864;2023-12-14T00:11:40;50.30;;;26.57;;
11141;SDS011;5625;50.122;19.864;2023-12-14T00:14:10;47.20;;;27.03;;
11141;SDS011;5625;50.122;19.864;2023-12-14T00:16:38;49.67;;;27.07;;
11141;SDS011;5625;50.122;19.864;2023-12-14T00:19:07;49.73;;;26.37;;
11141;SDS011;5625;50.122;19.864;2023-12-14T00:21:35;46.93;;;26.30;;
11141;SDS011;5625;50.122;19.864;2023-12-14T00:24:04;48.67;;;25.80;;
11141;SDS011;5625;50.122;19.864;2023-12-14T00:26:33;46.10;;;24.87;;
11141;SDS011;5625;50.122;19.864;2023-12-14T00:29:01;45.90;;;24.70;;
11141;SDS011;5625;50.122;19.864;2023-12-14T00:31:31;49.30;;;26.30;;
11141;SDS011;5625;50.122;19.864;2023-12-14T00:34:00;44.37;;;25.63;;
11141;SDS011;5625;50.122;19.864;2023-12-14T00:36:29;46.13;;;25.90;;
11141;SDS011;5625;50.122;19.864;2023-12-14T00:38:59;45.57;;;24.83;;
11141;SDS011;5625;50.122;19.864;2023-12-14T00:41:27;48.73;;;26.10;;
11141;SDS011;5625;50.122;19.864;2023-12-14T00:43:56;47.10;;;24.13;;
11141;SDS011;5625;50.122;19.864;2023-12-14T00:46:25;45.40;;;24.73;;
11141;SDS011;5625;50.122;19.864;2023-12-14T00:48:54;45.67;;;24.70;;
11141;SDS011;5625;50.122;19.864;2023-12-14T00:51:23;44.93;;;23.73;;
11141;SDS011;5625;50.122;19.864;2023-12-14T00:53:51;48.20;;;24.97;;
11141;SDS011;5625;50.122;19.864;2023-12-14T00:56:20;43.40;;;24.73;;
11141;SDS011;5625;50.122;19.864;2023-12-14T00:58:48;43.80;;;24.40;;
11141;SDS011;5625;50.122;19.864;2023-12-14T01:01:16;43.40;;;24.20;;
11141;SDS011;5625;50.122;19.864;2023-12-14T01:03:44;41.23;;;23.33;;
11141;SDS011;5625;50.122;19.864;2023-12-14T01:06:14;46.17;;;25.47;;
11141;SDS011;5625;50.122;19.864;2023-12-14T01:08:42;47.87;;;24.90;;
11141;SDS011;5625;50.122;19.864;2023-12-14T01:11:10;47.43;;;24.67;;
11141;SDS011;5625;50.122;19.864;2023-12-14T01:13:39;47.60;;;24.77;;
11141;SDS011;5625;50.122;19.864;2023-12-14T01:16:07;43.93;;;23.57;;
11141;SDS011;5625;50.122;19.864;2023-12-14T01:18:35;43.77;;;23.90;;
11141;SDS011;5625;50.122;19.864;2023-12-14T01:21:04;45.47;;;25.23;;
11141;SDS011;5625;50.122;19.864;2023-12-14T01:23:33;42.97;;;23.03;;
11141;SDS011;5625;50.122;19.864;2023-12-14T01:26:02;42.03;;;23.60;;
11141;SDS011;5625;50.122;19.864;2023-12-14T01:28:30;46.67;;;24.90;;
11141;SDS011;5625;50.122;19.864;2023-12-14T01:30:58;52.50;;;25.53;;
11141;SDS011;5625;50.122;19.864;2023-12-14T01:33:27;49.83;;;26.17;;
11141;SDS011;5625;50.122;19.864;2023-12-14T01:35:55;48.03;;;25.90;;
11141;SDS011;5625;50.122;19.864;2023-12-14T01:38:23;50.40;;;26.60;;
11141;SDS011;5625;50.122;19.864;2023-12-14T01:40:53;50.43;;;24.67;;
11141;SDS011;5625;50.122;19.864;2023-12-14T01:43:22;49.10;;;24.30;;
11141;SDS011;5625;50.122;19.864;2023-12-14T01:45:50;45.83;;;24.67;;
11141;SDS011;5625;50.122;19.864;2023-12-14T01:48:18;46.83;;;24.87;;
11141;SDS011;5625;50.122;19.864;2023-12-14T01:50:47;44.20;;;24.77;;
11141;SDS011;5625;50.122;19.864;2023-12-14T01:53:15;50.23;;;25.53;;
11141;SDS011;5625;50.122;19.864;2023-12-14T01:55:43;46.60;;;24.03;;
11141;SDS011;5625;50.122;19.864;2023-12-14T01:58:13;45.87;;;23.87;;
11141;SDS011;5625;50.122;19.864;2023-12-14T02:00:43;47.23;;;25.07;;
11141;SDS011;5625;50.122;19.864;2023-12-14T02:03:16;45.03;;;24.03;;
11141;SDS011;5625;50.122;19.864;2023-12-14T02:05:44;48.50;;;25.27;;
11141;SDS011;5625;50.122;19.864;2023-12-14T02:08:12;48.90;;;23.97;;
11141;SDS011;5625;50.122;19.864;2023-12-14T02:10:41;48.40;;;24.50;;
11141;SDS011;5625;50.122;19.864;2023-12-14T02:13:09;45.73;;;23.43;;
11141;SDS011;5625;50.122;19.864;2023-12-14T02:15:39;49.53;;;24.10;;
11141;SDS011;5625;50.122;19.864;2023-12-14T02:18:07;46.83;;;23.97;;
11141;SDS011;5625;50.122;19.864;2023-12-14T02:20:35;46.60;;;23.73;;
11141;SDS011;5625;50.122;19.864;2023-12-14T02:23:05;53.97;;;24.97;;
11141;SDS011;5625;50.122;19.864;2023-12-14T02:25:34;49.13;;;23.83;;
11141;SDS011;5625;50.122;19.864;2023-12-14T02:28:02;49.03;;;24.43;;
11141;SDS011;5625;50.122;19.864;2023-12-14T02:30:31;46.23;;;23.37;;
11141;SDS011;5625;50.122;19.864;2023-12-14T02:32:59;49.77;;;22.77;;
11141;SDS011;5625;50.122;19.864;2023-12-14T02:35:27;50.37;;;22.90;;
11141;SDS011;5625;50.122;19.864;2023-12-14T02:37:55;48.83;;;23.57;;
11141;SDS011;5625;50.122;19.864;2023-12-14T02:40:25;46.33;;;23.17;;
11141;SDS011;5625;50.122;19.864;2023-12-14T02:42:53;42.30;;;21.83;;
11141;SDS011;5625;50.122;19.864;2023-12-14T02:45:21;46.50;;;23.07;;
11141;SDS011;5625;50.122;19.864;2023-12-14T02:47:49;44.40;;;21.60;;
11141;SDS011;5625;50.122;19.864;2023-12-14T02:50:20;45.67;;;22.47;;
11141;SDS011;5625;50.122;19.864;2023-12-14T02:52:48;46.60;;;22.13;;
11141;SDS011;5625;50.122;19.864;2023-12-14T02:55:16;47.07;;;22.53;;
11141;SDS011;5625;50.122;19.864;2023-12-14T02:57:46;48.97;;;23.07;;
11141;SDS011;5625;50.122;19.864;2023-12-14T03:00:14;44.03;;;22.53;;
11141;SDS011;5625;50.122;19.864;2023-12-14T03:02:42;46.70;;;22.93;;
11141;SDS011;5625;50.122;19.864;2023-12-14T03:05:10;46.73;;;22.17;;
11141;SDS011;5625;50.122;19.864;2023-12-14T03:07:39;38.20;;;20.33;;
11141;SDS011;5625;50.122;19.864;2023-12-14T03:10:08;46.33;;;21.73;;
11141;SDS011;5625;50.122;19.864;2023-12-14T03:12:36;44.20;;;22.50;;
11141;SDS011;5625;50.122;19.864;2023-12-14T03:15:06;47.40;;;22.03;;
11141;SDS011;5625;50.122;19.864;2023-12-14T03:17:35;45.33;;;21.37;;
11141;SDS011;5625;50.122;19.864;2023-12-14T03:20:03;41.93;;;20.67;;
11141;SDS011;5625;50.122;19.864;2023-12-14T03:22:32;43.60;;;21.37;;
11141;SDS011;5625;50.122;19.864;2023-12-14T03:25:01;45.87;;;22.33;;
11141;SDS011;5625;50.122;19.864;2023-12-14T03:27:30;41.70;;;21.87;;
11141;SDS011;5625;50.122;19.864;2023-12-14T03:29:58;41.57;;;21.93;;
11141;SDS011;5625;50.122;19.864;2023-12-14T03:32:27;43.63;;;21.50;;
11141;SDS011;5625;50.122;19.864;2023-12-14T03:34:56;40.73;;;21.37;;
11141;SDS011;5625;50.122;19.864;2023-12-14T03:37:24;38.13;;;19.93;;
11141;SDS011;5625;50.122;19.864;2023-12-14T03:39:52;41.00;;;20.87;;
11141;SDS011;5625;50.122;19.864;2023-12-14T03:42:21;41.37;;;20.00;;
11141;SDS011;5625;50.122;19.864;2023-12-14T03:44:49;35.63;;;18.90;;
11141;SDS011;5625;50.122;19.864;2023-12-14T03:47:17;46.20;;;22.77;;
11141;SDS011;5625;50.122;19.864;2023-12-14T03:49:47;47.13;;;22.23;;
11141;SDS011;5625;50.122;19.864;2023-12-14T03:52:15;42.50;;;21.63;;
11141;SDS011;5625;50.122;19.864;2023-12-14T03:54:44;45.87;;;21.37;;
11141;SDS011;5625;50.122;19.864;2023-12-14T03:57:12;39.10;;;20.57;;
11141;SDS011;5625;50.122;19.864;2023-12-14T03:59:40;41.20;;;20.33;;
11141;SDS011;5625;50.122;19.864;2023-12-14T04:02:08;41.67;;;21.53;;
11141;SDS011;5625;50.122;19.864;2023-12-14T04:04:37;40.10;;;20.73;;
11141;SDS011;5625;50.122;19.864;2023-12-14T04:07:06;36.90;;;19.10;;
11141;SDS011;5625;50.122;19.864;2023-12-14T04:09:35;38.40;;;19.47;;
11141;SDS011;5625;50.122;19.864;2023-12-14T04:12:03;41.10;;;20.83;;
11141;SDS011;5625;50.122;19.864;2023-12-14T04:14:32;37.50;;;19.33;;
11141;SDS011;5625;50.122;19.864;2023-12-14T04:17:00;34.90;;;19.00;;
11141;SDS011;5625;50.122;19.864;2023-12-14T04:19:29;38.57;;;19.73;;
11141;SDS011;5625;50.122;19.864;2023-12-14T04:21:57;38.77;;;19.73;;
11141;SDS011;5625;50.122;19.864;2023-12-14T04:24:26;36.80;;;19.83;;
11141;SDS011;5625;50.122;19.864;2023-12-14T04:26:54;38.33;;;19.67;;
11141;SDS011;5625;50.122;19.864;2023-12-14T04:29:23;40.07;;;19.53;;
11141;SDS011;5625;50.122;19.864;2023-12-14T04:31:51;38.27;;;20.23;;
11141;SDS011;5625;50.122;19.864;2023-12-14T04:34:20;41.87;;;22.23;;
11141;SDS011;5625;50.122;19.864;2023-12-14T04:36:48;38.00;;;20.93;;
11141;SDS011;5625;50.122;19.864;2023-12-14T04:39:17;38.00;;;19.80;;
11141;SDS011;5625;50.122;19.864;2023-12-14T04:41:46;38.57;;;20.23;;
11141;SDS011;5625;50.122;19.864;2023-12-14T04:44:15;44.33;;;21.23;;
11141;SDS011;5625;50.122;19.864;2023-12-14T04:46:43;38.30;;;21.50;;
11141;SDS011;5625;50.122;19.864;2023-12-14T04:49:11;40.63;;;21.17;;
11141;SDS011;5625;50.122;19.864;2023-12-14T04:51:40;49.27;;;22.20;;
11141;SDS011;5625;50.122;19.864;2023-12-14T04:54:08;45.80;;;22.13;;
11141;SDS011;5625;50.122;19.864;2023-12-14T04:56:36;36.67;;;20.77;;
11141;SDS011;5625;50.122;19.864;2023-12-14T04:59:06;41.60;;;21.03;;
11141;SDS011;5625;50.122;19.864;2023-12-14T05:01:34;44.20;;;21.50;;
11141;SDS011;5625;50.122;19.864;2023-12-14T05:04:02;43.30;;;21.17;;
11141;SDS011;5625;50.122;19.864;2023-12-14T05:06:31;43.23;;;21.40;;
11141;SDS011;5625;50.122;19.864;2023-12-14T05:09:00;39.70;;;20.73;;
11141;SDS011;5625;50.122;19.864;2023-12-14T05:11:31;35.80;;;19.63;;
11141;SDS011;5625;50.122;19.864;2023-12-14T05:13:59;36.63;;;19.87;;
11141;SDS011;5625;50.122;19.864;2023-12-14T05:16:29;35.73;;;19.63;;
11141;SDS011;5625;50.122;19.864;2023-12-14T05:18:57;37.23;;;20.03;;
11141;SDS011;5625;50.122;19.864;2023-12-14T05:21:25;33.27;;;19.07;;
11141;SDS011;5625;50.122;19.864;2023-12-14T05:23:54;34.03;;;18.53;;
11141;SDS011;5625;50.122;19.864;2023-12-14T05:26:22;33.60;;;19.37;;
11141;SDS011;5625;50.122;19.864;2023-12-14T05:28:50;33.13;;;19.47;;
11141;SDS011;5625;50.122;19.864;2023-12-14T05:31:19;33.07;;;19.60;;
11141;SDS011;5625;50.122;19.864;2023-12-14T05:33:49;38.97;;;21.67;;
11141;SDS011;5625;50.122;19.864;2023-12-14T05:36:17;38.97;;;21.30;;
11141;SDS011;5625;50.122;19.864;2023-12-14T05:38:46;34.53;;;21.50;;
11141;SDS011;5625;50.122;19.864;2023-12-14T05:41:14;37.20;;;21.33;;
11141;SDS011;5625;50.122;19.864;2023-12-14T05:43:43;37.93;;;21.00;;
11141;SDS011;5625;50.122;19.864;2023-12-14T05:46:19;37.60;;;21.63;;
11141;SDS011;5625;50.122;19.864;2023-12-14T05:48:49;35.87;;;20.00;;
11141;SDS011;5625;50.122;19.864;2023-12-14T05:51:27;34.17;;;19.37;;
11141;SDS011;5625;50.122;19.864;2023-12-14T05:53:57;32.33;;;18.17;;
11141;SDS011;5625;50.122;19.864;2023-12-14T05:56:25;28.50;;;17.13;;
11141;SDS011;5625;50.122;19.864;2023-12-14T05:58:53;31.13;;;19.30;;
11141;SDS011;5625;50.122;19.864;2023-12-14T06:01:23;29.70;;;17.80;;
11141;SDS011;5625;50.122;19.864;2023-12-14T06:03:53;27.13;;;16.53;;
11141;SDS011;5625;50.122;19.864;2023-12-14T06:06:21;29.77;;;18.00;;
11141;SDS011;5625;50.122;19.864;2023-12-14T06:08:50;29.67;;;18.20;;
11141;SDS011;5625;50.122;19.864;2023-12-14T06:11:18;28.73;;;17.37;;
11141;SDS011;5625;50.122;19.864;2023-12-14T06:13:47;28.67;;;17.77;;
11141;SDS011;5625;50.122;19.864;2023-12-14T06:16:15;31.63;;;18.80;;
11141;SDS011;5625;50.122;19.864;2023-12-14T06:18:43;30.13;;;19.70;;
11141;SDS011;5625;50.122;19.864;2023-12-14T06:21:13;27.53;;;19.47;;
11141;SDS011;5625;50.122;19.864;2023-12-14T06:23:41;29.93;;;18.30;;
11141;SDS011;5625;50.122;19.864;2023-12-14T06:26:10;27.83;;;18.97;;
11141;SDS011;5625;50.122;19.864;2023-12-14T06:28:38;27.77;;;18.53;;
11141;SDS011;5625;50.122;19.864;2023-12-14T06:31:06;28.90;;;19.60;;
11141;SDS011;5625;50.122;19.864;2023-12-14T06:33:40;32.87;;;21.50;;
11141;SDS011;5625;50.122;19.864;2023-12-14T06:36:09;34.80;;;22.17;;
11141;SDS011;5625;50.122;19.864;2023-12-14T06:38:39;32.40;;;21.53;;
11141;SDS011;5625;50.122;19.864;2023-12-14T06:41:07;34.97;;;23.33;;
11141;SDS011;5625;50.122;19.864;2023-12-14T06:43:36;35.63;;;25.33;;
11141;SDS011;5625;50.122;19.864;2023-12-14T06:46:04;36.93;;;25.13;;
11141;SDS011;5625;50.122;19.864;2023-12-14T06:48:32;46.17;;;27.80;;
11141;SDS011;5625;50.122;19.864;2023-12-14T06:51:01;44.90;;;28.37;;
11141;SDS011;5625;50.122;19.864;2023-12-14T06:53:29;45.10;;;29.33;;
11141;SDS011;5625;50.122;19.864;2023-12-14T06:55:59;41.30;;;26.40;;
11141;SDS011;5625;50.122;19.864;2023-12-14T06:58:27;43.23;;;26.17;;
11141;SDS011;5625;50.122;19.864;2023-12-14T07:00:55;42.03;;;25.67;;
11141;SDS011;5625;50.122;19.864;2023-12-14T07:03:23;40.20;;;24.40;;
11141;SDS011;5625;50.122;19.864;2023-12-14T07:05:52;39.97;;;23.43;;
11141;SDS011;5625;50.122;19.864;2023-12-14T07:08:20;35.33;;;23.00;;
11141;SDS011;5625;50.122;19.864;2023-12-14T07:10:48;38.63;;;24.17;;
11141;SDS011;5625;50.122;19.864;2023-12-14T07:13:18;38.77;;;24.27;;
11141;SDS011;5625;50.122;19.864;2023-12-14T07:15:47;42.33;;;24.07;;
11141;SDS011;5625;50.122;19.864;2023-12-14T07:18:15;37.30;;;23.07;;
11141;SDS011;5625;50.122;19.864;2023-12-14T07:20:43;39.33;;;23.90;;
11141;SDS011;5625;50.122;19.864;2023-12-14T07:23:12;36.43;;;23.77;;
11141;SDS011;5625;50.122;19.864;2023-12-14T07:25:40;38.73;;;23.70;;
11141;SDS011;5625;50.122;19.864;2023-12-14T07:28:08;38.83;;;23.83;;
11141;SDS011;5625;50.122;19.864;2023-12-14T07:30:38;37.93;;;24.13;;
11141;SDS011;5625;50.122;19.864;2023-12-14T07:33:06;36.20;;;23.03;;
11141;SDS011;5625;50.122;19.864;2023-12-14T07:35:35;36.93;;;23.30;;
11141;SDS011;5625;50.122;19.864;2023-12-14T07:38:03;37.43;;;23.17;;
11141;SDS011;5625;50.122;19.864;2023-12-14T07:40:31;37.77;;;22.90;;
11141;SDS011;5625;50.122;19.864;2023-12-14T07:42:59;34.97;;;22.17;;
11141;SDS011;5625;50.122;19.864;2023-12-14T07:45:28;33.80;;;21.30;;
11141;SDS011;5625;50.122;19.864;2023-12-14T07:47:57;33.70;;;21.73;;
11141;SDS011;5625;50.122;19.864;2023-12-14T07:50:26;35.80;;;22.33;;
11141;SDS011;5625;50.122;19.864;2023-12-14T07:52:54;36.57;;;22.37;;
11141;SDS011;5625;50.122;19.864;2023-12-14T07:55:22;37.03;;;22.50;;
11141;SDS011;5625;50.122;19.864;2023-12-14T07:57:50;32.33;;;21.00;;
11141;SDS011;5625;50.122;19.864;2023-12-14T08:00:19;34.97;;;20.47;;
11141;SDS011;5625;50.122;19.864;2023-12-14T08:02:47;35.53;;;21.43;;
11141;SDS011;5625;50.122;19.864;2023-12-14T08:05:17;33.43;;;20.90;;
11141;SDS011;5625;50.122;19.864;2023-12-14T08:07:45;35.77;;;19.93;;
11141;SDS011;5625;50.122;19.864;2023-12-14T08:10:14;35.77;;;21.50;;
11141;SDS011;5625;50.122;19.864;2023-12-14T08:12:42;35.60;;;20.40;;
11141;SDS011;5625;50.122;19.864;2023-12-14T08:15:10;36.13;;;20.93;;
11141;SDS011;5625;50.122;19.864;2023-12-14T08:17:39;34.90;;;20.70;;
11141;SDS011;5625;50.122;19.864;2023-12-14T08:20:08;36.53;;;21.60;;
11141;SDS011;5625;50.122;19.864;2023-12-14T08:22:40;37.53;;;20.57;;
11141;SDS011;5625;50.122;19.864;2023-12-14T08:25:11;36.20;;;20.07;;
11141;SDS011;5625;50.122;19.864;2023-12-14T08:27:41;35.20;;;20.87;;
11141;SDS011;5625;50.122;19.864;2023-12-14T08:30:11;37.53;;;21.20;;
11141;SDS011;5625;50.122;19.864;2023-12-14T08:32:40;38.70;;;22.47;;
11141;SDS011;5625;50.122;19.864;2023-12-14T08:35:08;42.40;;;22.67;;
11141;SDS011;5625;50.122;19.864;2023-12-14T08:37:36;39.90;;;21.53;;
11141;SDS011;5625;50.122;19.864;2023-12-14T08:40:07;34.97;;;20.63;;
11141;SDS011;5625;50.122;19.864;2023-12-14T08:42:36;38.60;;;22.10;;
11141;SDS011;5625;50.122;19.864;2023-12-14T08:45:05;37.83;;;21.70;;
11141;SDS011;5625;50.122;19.864;2023-12-14T08:47:37;38.77;;;22.43;;
11141;SDS011;5625;50.122;19.864;2023-12-14T08:50:05;37.37;;;21.10;;
11141;SDS011;5625;50.122;19.864;2023-12-14T08:52:35;40.57;;;22.40;;
11141;SDS011;5625;50.122;19.864;2023-12-14T08:55:04;40.07;;;22.57;;
11141;SDS011;5625;50.122;19.864;2023-12-14T08:57:35;41.80;;;25.77;;
11141;SDS011;5625;50.122;19.864;2023-12-14T09:00:03;43.63;;;25.17;;
11141;SDS011;5625;50.122;19.864;2023-12-14T09:02:33;42.43;;;24.27;;
11141;SDS011;5625;50.122;19.864;2023-12-14T09:05:01;37.67;;;22.20;;
11141;SDS011;5625;50.122;19.864;2023-12-14T09:07:31;40.07;;;23.00;;
11141;SDS011;5625;50.122;19.864;2023-12-14T09:09:59;38.00;;;22.60;;
11141;SDS011;5625;50.122;19.864;2023-12-14T09:12:29;37.93;;;21.60;;
11141;SDS011;5625;50.122;19.864;2023-12-14T09:14:58;36.43;;;21.50;;
11141;SDS011;5625;50.122;19.864;2023-12-14T09:17:26;34.70;;;20.00;;
11141;SDS011;5625;50.122;19.864;2023-12-14T09:20:03;35.43;;;19.40;;
11141;SDS011;5625;50.122;19.864;2023-12-14T09:22:32;32.70;;;19.63;;
11141;SDS011;5625;50.122;19.864;2023-12-14T09:25:00;36.33;;;20.97;;
11141;SDS011;5625;50.122;19.864;2023-12-14T09:27:30;35.77;;;19.40;;
11141;SDS011;5625;50.122;19.864;2023-12-14T09:29:59;36.30;;;19.57;;
11141;SDS011;5625;50.122;19.864;2023-12-14T09:32:28;35.47;;;20.27;;
11141;SDS011;5625;50.122;19.864;2023-12-14T09:34:56;33.20;;;19.03;;
11141;SDS011;5625;50.122;19.864;2023-12-14T09:37:25;35.30;;;19.80;;
11141;SDS011;5625;50.122;19.864;2023-12-14T09:39:53;32.13;;;19.63;;
11141;SDS011;5625;50.122;19.864;2023-12-14T09:42:21;34.20;;;19.07;;
11141;SDS011;5625;50.122;19.864;2023-12-14T09:44:51;31.67;;;18.37;;
11141;SDS011;5625;50.122;19.864;2023-12-14T09:47:21;32.10;;;18.53;;
11141;SDS011;5625;50.122;19.864;2023-12-14T09:49:49;29.87;;;19.00;;
11141;SDS011;5625;50.122;19.864;2023-12-14T09:52:19;31.60;;;18.77;;
11141;SDS011;5625;50.122;19.864;2023-12-14T09:54:47;31.87;;;18.93;;
11141;SDS011;5625;50.122;19.864;2023-12-14T09:57:18;27.70;;;17.60;;
11141;SDS011;5625;50.122;19.864;2023-12-14T09:59:52;32.03;;;18.97;;
11141;SDS011;5625;50.122;19.864;2023-12-14T10:02:21;31.93;;;18.67;;
11141;SDS011;5625;50.122;19.864;2023-12-14T10:04:53;33.33;;;19.60;;
11141;SDS011;5625;50.122;19.864;2023-12-14T10:07:21;32.00;;;19.07;;
11141;SDS011;5625;50.122;19.864;2023-12-14T10:09:50;31.97;;;19.57;;
11141;SDS011;5625;50.122;19.864;2023-12-14T10:12:19;34.40;;;19.83;;
11141;SDS011;5625;50.122;19.864;2023-12-14T10:14:48;32.73;;;18.97;;
11141;SDS011;5625;50.122;19.864;2023-12-14T10:17:32;34.10;;;19.83;;
11141;SDS011;5625;50.122;19.864;2023-12-14T10:20:01;34.13;;;19.90;;
11141;SDS011;5625;50.122;19.864;2023-12-14T10:22:31;32.57;;;20.60;;
11141;SDS011;5625;50.122;19.864;2023-12-14T10:24:59;32.40;;;20.47;;
11141;SDS011;5625;50.122;19.864;2023-12-14T10:27:27;34.40;;;20.73;;
11141;SDS011;5625;50.122;19.864;2023-12-14T10:29:58;33.07;;;20.73;;
11141;SDS011;5625;50.122;19.864;2023-12-14T10:32:28;36.57;;;21.03;;
11141;SDS011;5625;50.122;19.864;2023-12-14T10:34:57;31.00;;;19.50;;
11141;SDS011;5625;50.122;19.864;2023-12-14T10:37:25;32.20;;;20.87;;
11141;SDS011;5625;50.122;19.864;2023-12-14T10:39:53;33.77;;;20.67;;
11141;SDS011;5625;50.122;19.864;2023-12-14T10:42:23;30.87;;;19.80;;
11141;SDS011;5625;50.122;19.864;2023-12-14T10:44:55;33.47;;;20.57;;
11141;SDS011;5625;50.122;19.864;2023-12-14T10:47:45;29.33;;;19.33;;
11141;SDS011;5625;50.122;19.864;2023-12-14T10:50:14;30.57;;;19.83;;
11141;SDS011;5625;50.122;19.864;2023-12-14T10:52:44;31.17;;;18.80;;
11141;SDS011;5625;50.122;19.864;2023-12-14T10:55:15;29.70;;;18.60;;
11141;SDS011;5625;50.122;19.864;2023-12-14T10:57:51;29.53;;;18.67;;
11141;SDS011;5625;50.122;19.864;2023-12-14T11:00:19;28.60;;;18.83;;
11141;SDS011;5625;50.122;19.864;2023-12-14T11:02:49;27.27;;;18.40;;
11141;SDS011;5625;50.122;19.864;2023-12-14T11:05:19;30.13;;;18.10;;
11141;SDS011;5625;50.122;19.864;2023-12-14T11:07:56;29.17;;;18.57;;
11141;SDS011;5625;50.122;19.864;2023-12-14T11:10:36;30.70;;;18.67;;
11141;SDS011;5625;50.122;19.864;2023-12-14T11:13:06;27.27;;;17.50;;
11141;SDS011;5625;50.122;19.864;2023-12-14T11:15:37;30.40;;;19.50;;
11141;SDS011;5625;50.122;19.864;2023-12-14T11:18:23;30.30;;;19.67;;
11141;SDS011;5625;50.122;19.864;2023-12-14T11:20:54;30.47;;;20.23;;
11141;SDS011;5625;50.122;19.864;2023-12-14T11:23:26;32.00;;;19.80;;
11141;SDS011;5625;50.122;19.864;2023-12-14T11:26:00;29.63;;;20.17;;
11141;SDS011;5625;50.122;19.864;2023-12-14T11:28:31;29.20;;;19.50;;
11141;SDS011;5625;50.122;19.864;2023-12-14T11:31:04;30.47;;;19.23;;
11141;SDS011;5625;50.122;19.864;2023-12-14T11:33:35;30.13;;;20.03;;
11141;SDS011;5625;50.122;19.864;2023-12-14T11:36:10;29.40;;;18.80;;
11141;SDS011;5625;50.122;19.864;2023-12-14T11:38:40;29.87;;;19.73;;
11141;SDS011;5625;50.122;19.864;2023-12-14T11:41:08;29.50;;;19.80;;
11141;SDS011;5625;50.122;19.864;2023-12-14T11:43:39;27.67;;;19.37;;
11141;SDS011;5625;50.122;19.864;2023-12-14T11:46:09;31.63;;;20.63;;
11141;SDS011;5625;50.122;19.864;2023-12-14T11:48:39;28.90;;;20.40;;
11141;SDS011;5625;50.122;19.864;2023-12-14T11:51:07;27.93;;;20.13;;
11141;SDS011;5625;50.122;19.864;2023-12-14T11:53:37;30.20;;;20.00;;
11141;SDS011;5625;50.122;19.864;2023-12-14T11:56:06;29.30;;;19.73;;
11141;SDS011;5625;50.122;19.864;2023-12-14T11:58:35;30.60;;;20.87;;
11141;SDS011;5625;50.122;19.864;2023-12-14T12:01:13;28.37;;;19.60;;
11141;SDS011;5625;50.122;19.864;2023-12-14T12:03:44;31.37;;;21.20;;
11141;SDS011;5625;50.122;19.864;2023-12-14T12:06:20;33.03;;;22.53;;
11141;SDS011;5625;50.122;19.864;2023-12-14T12:08:50;29.53;;;20.90;;
11141;SDS011;5625;50.122;19.864;2023-12-14T12:11:18;30.83;;;20.83;;
11141;SDS011;5625;50.122;19.864;2023-12-14T12:13:50;34.87;;;23.10;;
11141;SDS011;5625;50.122;19.864;2023-12-14T12:16:19;34.30;;;22.90;;
11141;SDS011;5625;50.122;19.864;2023-12-14T12:18:48;31.27;;;21.80;;
11141;SDS011;5625;50.122;19.864;2023-12-14T12:21:18;36.73;;;22.87;;
11141;SDS011;5625;50.122;19.864;2023-12-14T12:23:46;36.40;;;24.33;;
11141;SDS011;5625;50.122;19.864;2023-12-14T12:26:14;34.17;;;22.33;;
11141;SDS011;5625;50.122;19.864;2023-12-14T12:28:43;30.40;;;21.07;;
11141;SDS011;5625;50.122;19.864;2023-12-14T12:31:12;31.13;;;22.53;;
11141;SDS011;5625;50.122;19.864;2023-12-14T12:33:40;32.67;;;22.43;;
11141;SDS011;5625;50.122;19.864;2023-12-14T12:36:10;31.03;;;23.13;;
11141;SDS011;5625;50.122;19.864;2023-12-14T12:38:38;33.47;;;23.03;;
11141;SDS011;5625;50.122;19.864;2023-12-14T12:41:07;33.63;;;23.50;;
11141;SDS011;5625;50.122;19.864;2023-12-14T12:43:35;33.57;;;23.53;;
11141;SDS011;5625;50.122;19.864;2023-12-14T12:46:04;30.60;;;22.63;;
11141;SDS011;5625;50.122;19.864;2023-12-14T12:48:32;29.77;;;22.40;;
11141;SDS011;5625;50.122;19.864;2023-12-14T12:51:00;30.80;;;22.20;;
11141;SDS011;5625;50.122;19.864;2023-12-14T12:53:30;29.93;;;21.43;;
11141;SDS011;5625;50.122;19.864;2023-12-14T12:55:59;32.37;;;21.93;;
11141;SDS011;5625;50.122;19.864;2023-12-14T12:58:28;33.90;;;24.17;;
11141;SDS011;5625;50.122;19.864;2023-12-14T13:00:56;31.17;;;22.73;;
11141;SDS011;5625;50.122;19.864;2023-12-14T13:03:25;30.43;;;22.23;;
11141;SDS011;5625;50.122;19.864;2023-12-14T13:05:53;31.20;;;22.13;;
11141;SDS011;5625;50.122;19.864;2023-12-14T13:08:21;30.40;;;22.03;;
11141;SDS011;5625;50.122;19.864;2023-12-14T13:10:51;32.10;;;22.37;;
11141;SDS011;5625;50.122;19.864;2023-12-14T13:13:21;30.43;;;23.40;;
11141;SDS011;5625;50.122;19.864;2023-12-14T13:15:49;36.80;;;24.47;;
11141;SDS011;5625;50.122;19.864;2023-12-14T13:18:18;32.93;;;23.77;;
11141;SDS011;5625;50.122;19.864;2023-12-14T13:20:46;30.30;;;23.40;;
11141;SDS011;5625;50.122;19.864;2023-12-14T13:23:14;36.53;;;25.20;;
11141;SDS011;5625;50.122;19.864;2023-12-14T13:25:43;34.70;;;24.87;;
11141;SDS011;5625;50.122;19.864;2023-12-14T13:28:13;33.40;;;23.93;;
11141;SDS011;5625;50.122;19.864;2023-12-14T13:30:43;36.00;;;25.30;;
11141;SDS011;5625;50.122;19.864;2023-12-14T13:33:12;37.80;;;25.97;;
11141;SDS011;5625;50.122;19.864;2023-12-14T13:35:40;38.40;;;25.03;;
11141;SDS011;5625;50.122;19.864;2023-12-14T13:38:09;36.53;;;23.43;;
11141;SDS011;5625;50.122;19.864;2023-12-14T13:40:38;35.63;;;24.77;;
11141;SDS011;5625;50.122;19.864;2023-12-14T13:43:06;34.53;;;24.33;;
11141;SDS011;5625;50.122;19.864;2023-12-14T13:45:38;37.87;;;24.37;;
11141;SDS011;5625;50.122;19.864;2023-12-14T13:48:08;36.20;;;25.47;;
11141;SDS011;5625;50.122;19.864;2023-12-14T13:50:37;35.63;;;24.80;;
11141;SDS011;5625;50.122;19.864;2023-12-14T13:53:05;38.33;;;24.37;;
11141;SDS011;5625;50.122;19.864;2023-12-14T13:55:33;41.73;;;25.93;;
11141;SDS011;5625;50.122;19.864;2023-12-14T13:58:02;39.83;;;25.07;;
11141;SDS011;5625;50.122;19.864;2023-12-14T14:00:30;36.07;;;25.33;;
11141;SDS011;5625;50.122;19.864;2023-12-14T14:03:02;39.80;;;25.97;;
11141;SDS011;5625;50.122;19.864;2023-12-14T14:05:31;37.73;;;24.77;;
11141;SDS011;5625;50.122;19.864;2023-12-14T14:08:00;38.73;;;26.33;;
11141;SDS011;5625;50.122;19.864;2023-12-14T14:10:30;40.67;;;27.37;;
11141;SDS011;5625;50.122;19.864;2023-12-14T14:12:58;40.33;;;26.20;;
11141;SDS011;5625;50.122;19.864;2023-12-14T14:15:27;39.63;;;27.37;;
11141;SDS011;5625;50.122;19.864;2023-12-14T14:17:55;41.53;;;27.53;;
11141;SDS011;5625;50.122;19.864;2023-12-14T14:20:25;38.23;;;26.23;;
11141;SDS011;5625;50.122;19.864;2023-12-14T14:22:53;40.90;;;27.57;;
11141;SDS011;5625;50.122;19.864;2023-12-14T14:25:22;41.93;;;26.90;;
11141;SDS011;5625;50.122;19.864;2023-12-14T14:27:51;39.83;;;27.10;;
11141;SDS011;5625;50.122;19.864;2023-12-14T14:30:19;38.87;;;26.57;;
11141;SDS011;5625;50.122;19.864;2023-12-14T14:32:47;42.90;;;27.93;;